Weather observations for the past three days for
Andrews County Airport
Metric (Imperial)
Date Time (cdt) Wind (kph) Vis. (km) Weather Sky Cond. Temperature (ºC) Relative Humidity Wind Chill (°C) Heat Index (°C) Pressure Precipitation (cm)
Air Dwpt 6 hour altimeter (cm) sea level (mb) 1 hr 3 hr 6 hr
Max. Min.
04 02:15 S 15 16.09 Fair CLR 16.3 9.1 63% 76.1 0.0
04 01:55 S 19 G 26 16.09 Fair CLR 16.5 9.1 62% 76.1 0.0
04 01:35 S 13 16.09 Fair CLR 16.7 9.1 61% 76.12 0.0
04 01:15 S 19 G 28 16.09 Fair CLR 17 8.9 59% 76.12 0.0
04 00:55 S 22 G 30 16.09 Fair CLR 17 8.7 23.5 17 58% 76.12 0.0
04 00:35 S 19 16.09 Fair CLR 17.3 8.7 57% 76.15 0.0
04 00:15 S 17 G 30 16.09 Fair CLR 17.7 8.5 55% 76.15 0.0
03 23:55 S 19 16.09 Fair CLR 18 8.3 53% 76.15 0.0
03 23:35 S 20 16.09 Fair CLR 18.3 8.3 52% 76.17 0.0
03 23:15 S 22 G 28 16.09 Fair CLR 18.5 8.2 51% 76.2 0.0
03 22:55 S 20 16.09 Fair CLR 19 8.2 50% 76.2 0.0
03 22:35 S 17 16.09 Fair CLR 19.2 8.2 49% 76.17 0.0
03 22:15 S 20 16.09 Fair CLR 19.5 8 48% 76.17 0.0
03 21:55 S 15 16.09 Fair CLR 19.8 7.7 46% 76.17 0.0
03 21:35 S 15 16.09 Fair CLR 20.1 7.4 44% 76.17 0.0
03 21:15 S 17 16.09 Fair CLR 20.5 7.2 42% 76.15 0.0
03 20:55 S 17 16.09 Fair CLR 20.8 7.2 42% 76.15 0.0
03 20:35 S 15 16.09 Fair CLR 21.1 7.1 40% 76.15 0.0
03 20:15 S 13 16.09 Fair CLR 21.7 6.8 38% 76.15 0.0
03 19:55 S 15 16.09 Fair CLR 22.5 6.2 35% 76.15 0.0
03 19:35 S 22 16.09 Fair CLR 23.2 6.1 33% 76.15 0.0
03 19:15 SW 20 16.09 Fair CLR 23.5 5.8 32% 76.17 0.0
03 18:55 S 22 G 30 16.09 Fair CLR 23.2 5.9 24.8 21.6 33% 76.2 0.0
03 18:35 S 22 G 28 16.09 Fair CLR 23.7 6.1 32% 76.2 0.0
03 18:15 S 20 16.09 Fair CLR 23.3 6 33% 76.23 0.0
03 17:55 S 22 G 33 16.09 Fair CLR 24.2 6.2 31% 25 76.23 0.0
03 17:35 SW 17 G 22 16.09 Fair CLR 23.9 6.2 32% 25 76.25 0.0
03 17:15 S 24 G 37 16.09 Fair CLR 23.3 5.7 32% 76.28 0.0
03 16:55 S 24 G 35 16.09 Fair CLR 24.8 5.9 30% 25 76.28 0.0
03 16:35 SW 22 G 30 16.09 Fair CLR 23.5 5.8 32% 76.3 0.0
03 16:15 S 20 G 28 16.09 Fair CLR 23.6 5.7 32% 76.33 0.0
03 15:55 S 17 16.09 Fair CLR 24 5.7 31% 25 76.38 0.0
03 15:35 S 15 G 28 16.09 Fair CLR 23.6 5.9 32% 76.4 0.0
03 15:15 S 13 16.09 Fair CLR 23.1 5.9 33% 76.43 0.0
03 14:55 S 20 G 37 16.09 Fair CLR 23.5 6 32% 76.45 0.0
03 14:35 S 20 G 33 16.09 Fair CLR 23.5 6.3 33% 76.45 0.0
03 14:15 S 24 G 35 16.09 Fair CLR 23.7 6.8 34% 76.5 0.0
03 13:55 Calm 16.09 Fair CLR 22.4 6.2 35% 76.53 0.0
03 13:35 S 24 G 39 16.09 Fair CLR 22.5 6.4 35% 76.56 0.0
03 13:15 S 20 G 35 16.09 Fair CLR 22 6.3 36% 76.58 0.0
03 12:55 S 19 G 37 16.09 Fair CLR 21.5 6.5 21.5 10.7 38% 76.61 0.0
03 12:35 S 24 G 33 16.09 Fair CLR 21.3 6.9 39% 76.66 0.0
03 12:15 S 22 G 31 16.09 Fair CLR 20.8 6.5 40% 76.66 0.0
03 11:55 S 22 16.09 Fair CLR 20.5 6.8 41% 76.68 0.0
03 11:35 S 24 G 31 16.09 Fair CLR 20.4 7.3 43% 76.71 0.0
03 11:15 S 24 G 31 16.09 Fair CLR 19.6 7.3 45% 76.71 0.0
03 10:55 S 24 G 31 16.09 Fair CLR 19.2 7.3 46% 76.73 0.0
03 10:35 S 19 G 28 16.09 Fair CLR 18.6 7.9 50% 76.73 0.0
03 10:15 S 22 G 35 16.09 Fair CLR 18 7.6 51% 76.73 0.0
03 09:55 S 26 16.09 Fair CLR 17.5 7.7 53% 76.73 0.0
03 09:35 S 26 16.09 Fair CLR 16.7 7.7 56% 76.73 0.0
03 09:15 S 19 G 33 16.09 Fair CLR 16.1 7.7 58% 76.73 0.0
03 08:55 S 20 G 26 16.09 Fair CLR 15.4 7.7 60% 76.73 0.0
03 08:35 S 17 16.09 Fair CLR 14.5 8 65% 76.73 0.0
03 08:15 S 11 16.09 Fair CLR 13.1 8.1 72% 76.71 0.0
03 07:55 S 9 16.09 Fair CLR 12.2 7.5 73% 76.71 0.0
03 07:35 S 11 16.09 Fair CLR 11.4 7.5 77% 76.71 0.0
03 07:15 S 9 16.09 Fair CLR 11 7.6 80% 76.68 0.0
03 06:55 S 7 16.09 Fair CLR 10.9 7.5 13.2 10.7 80% 76.66 0.0
03 06:35 S 9 16.09 Fair CLR 11 7.6 80% 76.66 0.0
03 06:15 S 9 16.09 Fair CLR 11.1 7.5 79% 76.66 0.0
03 05:55 S 11 16.09 Fair CLR 11.5 7.4 76% 76.66 0.0
03 05:35 S 13 16.09 Fair CLR 11.7 7.4 75% 76.66 0.0
03 05:15 S 13 16.09 Fair CLR 12 7.3 73% 76.66 0.0
03 04:55 S 15 16.09 Fair CLR 12 7.3 73% 76.66 0.0
03 04:35 S 15 16.09 Fair CLR 12.1 7.3 73% 76.68 0.0
03 04:15 S 13 16.09 Fair CLR 12.2 7.3 72% 76.68 0.0
03 03:55 S 9 16.09 Fair CLR 11.9 7.7 76% 76.68 0.0
03 03:35 S 7 16.09 Fair CLR 11.7 8 78% 76.68 0.0
03 03:15 S 7 16.09 Fair CLR 11.7 7.7 77% 76.71 0.0
03 02:55 S 7 16.09 Fair CLR 12 8 77% 76.71 0.0
03 02:35 S 11 16.09 Fair CLR 12.2 8 76% 76.71 0.0
03 02:15 S 9 16.09 Fair CLR 12.5 8 74% 76.73 0.0
03 01:55 S 9 16.09 Fair CLR 12.3 8.1 76% 76.73 0.0
03 01:35 S 11 16.09 Fair CLR 13.1 7.7 70% 76.73 0.0
03 01:15 S 11 16.09 Fair CLR 12.9 8.5 75% 76.73 0.0
03 00:55 S 7 16.09 Fair CLR 13 8.5 18.4 12.6 74% 76.76 0.0
03 00:35 S 9 16.09 Fair CLR 12.7 9.3 80% 76.76 0.0
03 00:15 Calm 16.09 Fair CLR 13.5 8.9 74% 76.76 0.0
02 23:55 Calm 16.09 Fair CLR 12.7 9.2 79% 76.76 0.0
02 23:35 Calm 16.09 Fair CLR 13 8.8 76% 76.73 0.0
02 23:15 Calm 16.09 Fair CLR 13.3 8.4 72% 76.73 0.0
02 22:55 SE 6 16.09 Fair CLR 12.9 8.7 76% 76.73 0.0
02 22:35 S 6 16.09 Fair CLR 13.3 8.5 73% 76.73 0.0
02 22:15 Calm 16.09 Fair CLR 13.7 7.9 68% 76.73 0.0
02 21:55 S 7 16.09 Fair CLR 14.2 8 67% 76.71 0.0
02 21:35 S 6 16.09 Fair CLR 14.5 8 65% 76.68 0.0
02 21:15 S 7 16.09 Fair CLR 15 8 63% 76.66 0.0
02 20:55 S 7 16.09 Fair CLR 15.6 7.6 59% 76.66 0.0
02 20:35 S 7 16.09 Fair CLR 16.6 6.3 51% 76.66 0.0
02 20:15 S 9 16.09 Fair CLR 17.5 5.9 47% 76.66 0.0
02 19:55 S 9 16.09 Fair CLR 18.1 5.5 44% 76.66 0.0
02 19:35 S 7 16.09 Partly Cloudy SCT060 18 5.7 45% 76.63 0.0
02 19:15 S 6 16.09 Fair CLR 18.1 5 42% 76.66 0.0
02 18:55 Calm 16.09 Partly Cloudy SCT110 18.2 4.4 19.5 16.7 40% 76.66 0.0
02 18:35 Calm 16.09 Partly Cloudy SCT070 SCT110 18.5 4.8 41% 76.66 0.0
02 18:15 Calm 16.09 Partly Cloudy SCT070 18.5 4.5 40% 76.66 0.0
02 17:55 S 11 16.09 Overcast SCT055 OVC070 19.5 5 39% 76.66 0.0
02 17:35 Calm 16.09 Overcast SCT060 OVC070 18.9 5.1 40% 76.66 0.0
02 17:15 SE 9 16.09 Overcast OVC060 18.5 5 41% 76.68 0.0
02 16:55 Calm 16.09 Overcast SCT060 OVC070 18.6 4.6 40% 76.68 0.0
02 16:35 Calm 16.09 Overcast OVC070 18.4 4.3 39% 76.71 0.0
02 16:15 Calm 16.09 Overcast OVC070 18.4 4.5 40% 76.73 0.0
02 15:55 Calm 16.09 Overcast OVC070 18.5 4.6 40% 76.76 0.0
02 15:35 SE 9 16.09 Overcast OVC065 18.8 4.3 39% 76.76 0.0
02 15:15 SW 7 16.09 Overcast OVC055 18.5 4.4 40% 76.76 0.0
02 14:55 S 9 16.09 Overcast OVC065 17.9 4.1 40% 76.78 0.0
02 14:35 Calm 16.09 Overcast OVC060 17.8 4 40% 76.81 0.0
02 14:15 S 11 16.09 Overcast OVC060 17.4 4.1 41% 76.81 0.0
02 13:55 Calm 16.09 Overcast OVC060 17 4.2 43% 76.84 0.0
02 13:35 Calm 16.09 Overcast OVC060 17.1 4.1 42% 76.84 0.0
02 13:15 SW 11 16.09 Mostly Cloudy BKN050 16.9 4.3 43% 76.86 0.0
02 12:55 Calm 16.09 Partly Cloudy SCT050 16.5 3.8 18 8.1 43% 76.86 0.0
02 12:35 Calm 16.09 Partly Cloudy SCT050 16.6 4 43% 76.89 0.0
02 12:15 Calm 16.09 Fair CLR 16.6 4 43% 76.89 0.0
02 11:55 W 6 16.09 Fair CLR 16.1 3.9 44% 76.89 0.0
02 11:35 S 6 16.09 Fair CLR 16.2 4.4 46% 76.89 0.0
02 11:15 S 6 16.09 Fair CLR 15.7 4.2 47% 76.89 0.0
02 10:55 S 11 16.09 Fair CLR 15.5 4.3 47% 76.89 0.0
02 10:35 W 6 16.09 Fair CLR 14.9 4.4 50% 76.89 0.0
02 10:15 SW 6 16.09 Fair CLR 14.6 3.8 49% 76.91 0.0
02 09:55 W 9 16.09 Fair CLR 14 4.3 52% 76.91 0.0
02 09:35 W 7 16.09 Fair CLR 13.3 3.4 51% 76.91 0.0
02 09:15 Calm 16.09 Fair CLR 12.4 6.5 68% 76.89 0.0
02 08:55 NW 6 16.09 Fair CLR 11.2 6.7 74% 76.89 0.0
02 08:35 NW 6 16.09 Fair CLR 10.4 7.6 83% 76.89 0.0
02 08:15 Calm 16.09 Fair CLR 9.6 8 90% 76.86 0.0
02 07:55 NW 6 16.09 Fair CLR 9 8.8 99% 76.84 0.0
02 07:35 NW 6 16.09 Partly Cloudy SCT070 8.5 8.5 100% 76.81 0.0
02 07:15 Calm 16.09 Mostly Cloudy BKN070 8.3 8.3 100% 76.81 0.0
02 06:55 W 6 16.09 Partly Cloudy SCT070 8.1 8.1 11.2 8 100% 76.78 0.0
02 06:35 NW 6 16.09 Fair CLR 8.1 8.1 100% 76.78 0.0
02 06:15 NW 6 16.09 Fair CLR 8.5 8.1 97% 76.76 0.0
02 05:55 NW 6 16.09 Fair CLR 8.5 8.1 97% 76.76 0.0
02 05:35 NW 7 16.09 Fair CLR 8.5 7.5 94% 8 76.76 0.0
02 05:15 NW 7 16.09 Fair CLR 8.6 7.2 91% 8 76.73 0.0
02 04:55 NW 7 16.09 Fair CLR 8.7 7 89% 8 76.73 0.0
02 04:35 NW 7 16.09 Fair CLR 8.8 7 89% 8 76.71 0.0
02 04:15 NW 6 16.09 Fair CLR 9.1 7 87% 76.71 0.0
02 03:55 NW 6 16.09 Mostly Cloudy SCT065 BKN090 9.5 7 85% 76.71 0.0
02 03:35 NW 7 16.09 Mostly Cloudy BKN065 BKN090 9.5 7.2 86% 9 76.71 0.0
02 03:15 NW 6 16.09 Partly Cloudy SCT090 9.6 7.3 86% 76.71 0.0
02 02:55 NW 6 16.09 Mostly Cloudy SCT070 BKN090 9.7 7.5 86% 76.71 0.0
02 02:35 N 9 16.09 Overcast OVC070 10.4 7.5 82% 76.73 0.0
02 02:15 NW 11 16.09 Overcast OVC070 10.8 8.1 84% 76.73 0.0
02 01:55 N 13 16.09 Overcast OVC070 11 7.9 81% 76.73 0.0
02 01:35 N 9 16.09 Overcast OVC060 11.1 8 81% 76.73 0.0
02 01:15 N 7 16.09 Overcast OVC060 11.2 8.1 81% 76.73 0.0
02 00:55 Calm 16.09 Overcast OVC060 11.2 8 11.6 10.9 81% 76.73 0.0
02 00:35 N 6 16.09 Overcast BKN060 OVC070 11 7.9 81% 76.71 0.0
02 00:15 Calm 16.09 Overcast BKN070 BKN085 OVC110 11.2 7.2 77% 76.71 0.0
01 23:55 Calm 16.09 Overcast BKN070 BKN085 OVC110 11.2 6.9 75% 76.68 0.0
01 23:35 NW 9 16.09 Overcast BKN070 OVC080 11.5 6.6 72% 76.68 0.0
01 23:15 NW 6 16.09 Overcast BKN070 OVC085 11.5 6.5 72% 76.66 0.0
01 22:55 Calm 16.09 Overcast OVC085 11.6 5.9 68% 76.63 0.0
01 22:35 Calm 16.09 Overcast OVC070 11.6 5.3 66% 76.63 0.0
01 22:15 NE 7 16.09 Overcast OVC070 11.5 5.3 66% 76.61 0.0
01 21:55 NE 11 16.09 Overcast OVC070 11.5 5.2 66% 76.58 0.0
01 21:35 NE 13 16.09 Overcast OVC070 11.2 5.5 68% 76.56 0.0
01 21:15 NE 15 16.09 Overcast OVC070 11 6.2 73% 76.56 0.0
01 20:55 NE 17 16.09 Overcast OVC070 11 6.6 75% 76.53 0.0
01 20:35 NE 15 16.09 Overcast SCT041 SCT046 OVC080 11 8.6 85% 76.5 0.0
01 20:15 NE 13 16.09 Overcast BKN039 BKN046 OVC080 11.2 11.1 99% 76.48 0.0
01 19:55 N 13 16.09 Rain OVC041 11 11 100% 76.5 0.0
01 19:35 N 19 16.09 Light Rain SCT037 BKN045 OVC070 11.3 10.4 94% 76.48 0.0
01 19:15 N 13 16.09 Drizzle BKN035 OVC042 11.1 9.9 92% 76.48 0.0
01 18:55 N 20 16.09 Light Rain OVC035 11.6 8.4 13.9 10.5 81% 76.48 0.0
01 18:35 NE 19 16.09 Overcast BKN037 BKN045 OVC060 13.2 5.9 62% 76.43 0.0
01 18:15 NE 19 G 30 16.09 Overcast SCT038 SCT043 OVC070 13.3 5 57% 76.4 0.0
01 17:55 E 19 16.09 Overcast BKN035 OVC070 13.3 4.9 57% 76.38 0.0
01 17:35 E 17 16.09 Overcast OVC029 13.1 6.4 64% 76.35 0.0
01 17:15 E 24 16.09 Light Drizzle OVC026 12.8 7.3 69% 76.33 0.0
01 16:55 E 22 G 33 16.09 Overcast BKN021 OVC028 13.2 8.3 72% 76.3 0.0
01 16:35 E 24 G 33 16.09 Overcast BKN022 OVC028 13.8 8.5 71% 76.3 0.0
01 16:15 E 28 G 35 16.09 Overcast OVC022 13.3 8.5 73% 76.3 0.0
01 15:55 E 28 G 37 16.09 Overcast OVC022 13.3 7.8 70% 76.33 0.0
01 15:35 E 26 16.09 Overcast OVC017 13.2 7.8 70% 76.33 0.0
01 15:15 E 30 G 39 16.09 Overcast OVC017 12.8 8.2 74% 76.33 0.0
01 14:55 E 28 G 46 16.09 Overcast OVC015 13.9 8.4 70% 76.33 0.0
01 14:35 E 33 G 41 16.09 Overcast and Breezy OVC013 12.5 8.9 79% 76.33 0.0
01 14:15 E 30 G 41 16.09 Overcast OVC013 11.1 8.1 82% 76.33 0.0
01 13:55 E 33 G 43 16.09 Overcast and Breezy OVC013 11 10 94% 76.35 0.0
01 13:35 E 33 G 43 16.09 Overcast and Breezy OVC014 11.1 11.1 100% 76.35 0.0
01 13:15 E 33 G 39 16.09 Overcast and Breezy OVC012 10.6 10.6 100% 76.38 0.0
01 12:55 E 31 G 43 16.09 Light Rain OVC012 10.7 10.7 11.8 10.5 100% 76.4 0.0 1.04
01 12:35 E 26 G 39 16.09 Overcast BKN010 OVC014 10.6 10.6 100% 76.43 0.0
01 12:15 E 26 G 37 16.09 Overcast BKN006 OVC012 10.6 10.6 100% 76.45 0.0
01 11:55 E 24 G 37 16.09 Light Rain BKN008 OVC014 10.6 10.6 100% 76.45 0.0 0.1
01 11:35 E 28 G 39 11.27 Drizzle BKN008 OVC014 10.5 10.5 100% 76.45 0.0 0.08
01 11:15 NE 24 8.05 Light Rain BKN006 OVC010 10.7 10.7 100% 76.45 0.0 0.05
01 10:55 E 24 G 31 11.27 Light Rain OVC006 10.6 10.6 100% 76.43 0.0 0.23
01 10:35 E 26 11.27 Light Rain SCT006 BKN009 OVC029 10.5 10.5 100% 76.38 0.0 0.18
01 10:15 E 31 G 39 8.05 Light Rain BKN006 BKN021 OVC060 10.5 10.5 100% 76.33 0.0 0.1
01 09:55 E 22 6.44 Rain OVC004 10.6 10.6 100% 76.33 0.0 0.56 0.71
01 09:35 E 15 6.44 Rain OVC004 11 11 100% 76.33 0.0 0.41
01 09:15 E 22 4.83 Rain OVC004 11 11 100% 76.28 0.0 0.2
01 08:55 E 22 G 28 8.05 Rain OVC006 11.2 11.2 100% 76.25 0.0 0.13
01 08:35 E 28 G 37 16.09 Light Rain OVC006 11.3 11.3 100% 76.15 0.0 0.03
01 08:15 E 33 G 43 16.09 Light Rain and Breezy OVC004 11.5 11.5 100% 76.1 0.0
01 07:55 E 31 G 39 16.09 Light Rain OVC006 11.5 11.5 100% 76.12 0.0 0.03
01 07:35 E 31 G 41 16.09 Light Rain OVC006 11.5 11.5 100% 76.1 0.0 0.03
01 07:15 E 33 G 39 16.09 Light Rain and Breezy BKN004 OVC009 11.5 11.5 100% 76.1 0.0 0.03
01 06:55 E 30 16.09 Light Rain OVC004 11.9 11.9 13.2 11.8 100% 76.1 0.0 0.3 1.12
01 06:35 E 26 G 39 8.05 Light Rain OVC004 12 12 100% 76.1 0.0 0.25
01 06:15 E 19 G 30 11.27 Rain OVC004 12.1 12.1 100% 76.1 0.0 0.13
01 05:55 E 19 8.05 Rain OVC004 12.5 12.5 100% 76.12 0.0 0.46
01 05:35 SE 19 8.05 Rain BKN006 BKN009 OVC045 12.4 12.4 100% 76.12 0.0 0.33
01 05:15 SE 7 11.27 Rain BKN004 BKN010 OVC015 12.2 12.2 100% 76.15 0.0 0.1
01 04:55 E 17 11.27 Rain BKN004 BKN010 OVC015 12.2 12.2 100% 76.15 0.0 0.23
01 04:35 E 17 11.27 Rain BKN006 OVC016 12.3 12.3 100% 76.12 0.0 0.13
01 04:15 E 15 8.05 Light Rain BKN006 OVC013 12.3 12.3 100% 76.15 0.0 0.03
01 03:55 E 17 11.27 Drizzle BKN006 BKN013 OVC017 12.5 12.5 100% 76.15 0.0 0.05 0.1
01 03:35 E 15 11.27 Light Rain BKN006 OVC010 12.5 12.5 100% 76.15 0.0 0.05
01 03:15 E 13 11.27 Drizzle BKN006 BKN012 OVC023 12.5 12.5 100% 76.17 0.0
01 02:55 E 17 11.27 Light Drizzle BKN006 OVC012 12.6 12.6 100% 76.2 0.0
Date Time (cdt) Wind (kph) Vis. (km) Weather Sky Cond. Air Dwpt Max. Min. Relative Humidity Wind Chill (°C) Heat Index (°C) altimeter (cm) sea level (mb) 1 hr 3 hr 6 hr
6 hour
Temperature (ºC) Pressure Precipitation (cm)